Time;durP1;ratioP1;P1;durP2;ratioP2;P2;SDS_P1;SDS_P2;PMS_P1;PMS_P2;Temp;Humidity;BMP_temperature;BMP_pressure;BME280_temperature;BME280_humidity;BME280_pressure;Samples;Min_cycle;Max_cycle;Signal;HPM_P1;HPM_P2
2024/03/22 00:01:11;;;;;;;41.08;16.70;;;;;;;;;;5076060;28;20024;-65
2024/03/22 00:03:57;;;;;;;46.25;17.20;;;;;;;;;;5061880;28;20090;-65
2024/03/22 00:06:46;;;;;;;44.90;17.23;;;;;;;;;;5075402;28;20032;-65
2024/03/22 00:09:32;;;;;;;42.58;17.67;;;;;;;;;;5060809;28;20025;-65
2024/03/22 00:12:17;;;;;;;40.78;17.05;;;;;;;;;;5076220;28;20505;-65
2024/03/22 00:15:03;;;;;;;41.08;16.08;;;;;;;;;;5076760;28;20032;-65
2024/03/22 00:17:49;;;;;;;42.47;16.90;;;;;;;;;;5075432;28;20052;-65
2024/03/22 00:20:34;;;;;;;43.92;17.02;;;;;;;;;;5074683;28;20032;-65
2024/03/22 00:23:20;;;;;;;50.92;18.95;;;;;;;;;;5075637;28;20025;-65
2024/03/22 00:26:06;;;;;;;49.03;17.42;;;;;;;;;;5060426;28;20020;-65
2024/03/22 00:28:52;;;;;;;49.33;17.90;;;;;;;;;;5060014;28;20032;-66
2024/03/22 00:31:38;;;;;;;39.30;16.05;;;;;;;;;;5076417;28;20108;-65
2024/03/22 00:34:23;;;;;;;48.72;18.25;;;;;;;;;;5060453;28;20024;-65
2024/03/22 00:37:09;;;;;;;45.55;17.95;;;;;;;;;;5059117;28;20029;-65
2024/03/22 00:39:54;;;;;;;42.63;18.15;;;;;;;;;;5075295;28;20028;-65
2024/03/22 00:42:40;;;;;;;45.58;16.77;;;;;;;;;;5074294;28;20021;-65
2024/03/22 00:45:26;;;;;;;46.00;18.50;;;;;;;;;;5076067;28;20020;-65
2024/03/22 00:48:11;;;;;;;49.33;18.92;;;;;;;;;;5074268;28;20507;-65
2024/03/22 00:50:57;;;;;;;50.63;18.67;;;;;;;;;;5074758;28;20052;-65
2024/03/22 00:53:43;;;;;;;40.00;15.75;;;;;;;;;;5075307;28;20032;-66
2024/03/22 00:56:28;;;;;;;50.00;17.38;;;;;;;;;;5075008;28;20066;-65
2024/03/22 00:59:14;;;;;;;51.25;19.58;;;;;;;;;;5074798;28;20072;-65
2024/03/22 01:01:59;;;;;;;54.45;22.00;;;;;;;;;;5074191;28;20407;-64
2024/03/22 01:04:45;;;;;;;54.92;19.92;;;;;;;;;;5075126;28;20024;-65
2024/03/22 01:07:31;;;;;;;49.83;19.15;;;;;;;;;;5075275;28;20025;-65
2024/03/22 01:10:16;;;;;;;48.67;19.67;;;;;;;;;;5073392;28;20394;-65
2024/03/22 01:13:02;;;;;;;54.42;20.55;;;;;;;;;;5075247;28;20078;-65
2024/03/22 01:15:48;;;;;;;51.00;22.17;;;;;;;;;;5074297;28;20358;-65
2024/03/22 01:18:33;;;;;;;48.30;19.58;;;;;;;;;;5073589;28;20029;-65
2024/03/22 01:21:19;;;;;;;53.25;19.05;;;;;;;;;;5075182;28;20028;-65
2024/03/22 01:24:05;;;;;;;56.28;21.05;;;;;;;;;;5060981;28;20024;-65
2024/03/22 01:26:50;;;;;;;60.80;21.02;;;;;;;;;;5073605;28;20028;-64
2024/03/22 01:29:36;;;;;;;52.97;22.80;;;;;;;;;;5074584;28;20393;-65
2024/03/22 01:32:22;;;;;;;50.33;18.13;;;;;;;;;;5076816;28;20029;-65
2024/03/22 01:35:08;;;;;;;57.67;20.33;;;;;;;;;;5073902;28;20021;-65
2024/03/22 01:37:53;;;;;;;56.83;22.25;;;;;;;;;;5074393;28;20036;-65
2024/03/22 01:40:39;;;;;;;62.67;21.80;;;;;;;;;;5074008;28;20020;-65
2024/03/22 01:43:24;;;;;;;60.47;23.38;;;;;;;;;;5073344;28;20024;-65
2024/03/22 01:46:10;;;;;;;60.25;21.98;;;;;;;;;;5073431;28;20025;-65
2024/03/22 01:48:56;;;;;;;59.85;21.25;;;;;;;;;;5073527;28;20081;-65
2024/03/22 01:51:42;;;;;;;63.03;22.20;;;;;;;;;;5073801;28;20028;-65
2024/03/22 01:54:28;;;;;;;62.95;23.55;;;;;;;;;;5074139;28;20563;-65
2024/03/22 01:57:13;;;;;;;60.13;21.88;;;;;;;;;;5058522;28;20057;-64
2024/03/22 01:59:59;;;;;;;54.25;21.77;;;;;;;;;;5073328;28;20121;-65
2024/03/22 02:02:45;;;;;;;62.95;22.85;;;;;;;;;;5058569;28;20490;-65
2024/03/22 02:05:31;;;;;;;62.83;21.75;;;;;;;;;;5073311;28;20056;-65
2024/03/22 02:08:16;;;;;;;61.20;22.73;;;;;;;;;;5073228;28;20110;-65
2024/03/22 02:11:02;;;;;;;61.67;24.60;;;;;;;;;;5073548;28;20031;-65
2024/03/22 02:13:48;;;;;;;65.22;23.52;;;;;;;;;;5072789;28;20486;-65
2024/03/22 02:16:33;;;;;;;59.75;23.10;;;;;;;;;;5073476;28;20028;-65
2024/03/22 02:19:19;;;;;;;59.90;23.25;;;;;;;;;;5072491;28;20024;-65
2024/03/22 02:22:04;;;;;;;62.20;21.75;;;;;;;;;;5072739;28;20024;-65
2024/03/22 02:24:50;;;;;;;59.75;22.05;;;;;;;;;;5073219;28;20109;-65
2024/03/22 02:27:38;;;;;;;63.50;23.58;;;;;;;;;;5072580;28;20078;-65
2024/03/22 02:30:23;;;;;;;62.60;24.80;;;;;;;;;;5073121;28;20054;-65
2024/03/22 02:33:09;;;;;;;62.92;22.63;;;;;;;;;;5073803;28;20098;-65
2024/03/22 02:35:55;;;;;;;69.78;24.33;;;;;;;;;;5072330;28;20378;-65
2024/03/22 02:38:40;;;;;;;64.72;23.77;;;;;;;;;;5073086;28;20099;-65
2024/03/22 02:41:26;;;;;;;64.20;23.33;;;;;;;;;;5072654;28;20505;-65
2024/03/22 02:44:12;;;;;;;69.28;25.27;;;;;;;;;;5072737;28;20390;-65
2024/03/22 02:46:57;;;;;;;73.18;24.48;;;;;;;;;;5072884;28;20048;-65
2024/03/22 02:49:43;;;;;;;66.75;23.48;;;;;;;;;;5072012;28;20107;-65
2024/03/22 02:52:28;;;;;;;76.15;26.63;;;;;;;;;;5073050;28;20025;-65
2024/03/22 02:55:14;;;;;;;75.10;25.42;;;;;;;;;;5072292;28;20032;-65
2024/03/22 02:58:00;;;;;;;76.07;27.35;;;;;;;;;;5071725;28;20417;-65
2024/03/22 03:00:45;;;;;;;71.32;26.48;;;;;;;;;;5072482;28;20021;-65
2024/03/22 03:03:31;;;;;;;75.10;27.67;;;;;;;;;;5058209;28;20025;-65
2024/03/22 03:06:19;;;;;;;77.63;28.30;;;;;;;;;;5071320;28;20420;-65
2024/03/22 03:09:08;;;;;;;88.63;32.05;;;;;;;;;;5073018;28;20385;-66
2024/03/22 03:11:53;;;;;;;85.50;31.77;;;;;;;;;;5077643;28;20496;-66
2024/03/22 03:14:39;;;;;;;96.07;32.47;;;;;;;;;;5086273;28;20012;-66
2024/03/22 03:17:25;;;;;;;95.97;31.90;;;;;;;;;;5091597;28;20045;-65
2024/03/22 03:20:13;;;;;;;94.80;32.22;;;;;;;;;;5077099;28;20024;-66
2024/03/22 03:22:59;;;;;;;87.10;30.23;;;;;;;;;;5088174;28;20024;-65
2024/03/22 03:25:46;;;;;;;90.45;32.90;;;;;;;;;;5071506;28;20115;-66
2024/03/22 03:28:31;;;;;;;104.00;32.85;;;;;;;;;;5070866;28;20021;-65
2024/03/22 03:31:17;;;;;;;101.70;32.72;;;;;;;;;;5071415;28;20024;-65
2024/03/22 03:34:03;;;;;;;99.47;31.10;;;;;;;;;;5071972;28;20588;-66
2024/03/22 03:36:48;;;;;;;95.72;30.70;;;;;;;;;;5071180;28;20020;-65
2024/03/22 03:39:34;;;;;;;96.13;30.00;;;;;;;;;;5072371;28;20064;-66
2024/03/22 03:42:19;;;;;;;102.03;30.02;;;;;;;;;;5073100;28;20035;-66
2024/03/22 03:45:05;;;;;;;87.47;30.42;;;;;;;;;;5071789;28;20025;-66
2024/03/22 03:47:51;;;;;;;97.55;30.20;;;;;;;;;;5072637;28;20060;-66
2024/03/22 03:50:37;;;;;;;95.45;30.88;;;;;;;;;;5072977;28;20020;-66
2024/03/22 03:53:22;;;;;;;84.80;29.27;;;;;;;;;;5071884;28;20025;-66
2024/03/22 03:56:08;;;;;;;91.10;30.38;;;;;;;;;;5072187;28;20021;-66
2024/03/22 03:58:54;;;;;;;88.10;27.33;;;;;;;;;;5071422;28;20413;-66
2024/03/22 04:01:39;;;;;;;92.90;27.58;;;;;;;;;;5071972;28;20036;-66
2024/03/22 04:04:25;;;;;;;80.35;27.10;;;;;;;;;;5071251;28;20031;-66
2024/03/22 04:07:10;;;;;;;79.18;28.10;;;;;;;;;;5057773;28;20067;-66
2024/03/22 04:09:56;;;;;;;86.03;30.08;;;;;;;;;;5071075;28;20107;-66
2024/03/22 04:12:42;;;;;;;76.00;27.30;;;;;;;;;;5071359;28;20397;-66
2024/03/22 04:15:27;;;;;;;83.85;28.73;;;;;;;;;;5071136;28;20020;-66
2024/03/22 04:18:13;;;;;;;78.68;27.38;;;;;;;;;;5057234;28;20032;-66
2024/03/22 04:20:59;;;;;;;82.70;26.90;;;;;;;;;;5071620;28;20413;-66
2024/03/22 04:23:45;;;;;;;80.38;27.98;;;;;;;;;;5071104;28;20035;-66
2024/03/22 04:26:31;;;;;;;86.15;29.13;;;;;;;;;;5070751;28;20032;-66
2024/03/22 04:29:17;;;;;;;89.60;27.00;;;;;;;;;;5056016;28;20024;-66
2024/03/22 04:32:02;;;;;;;79.28;25.83;;;;;;;;;;5071511;28;20024;-66
2024/03/22 04:34:48;;;;;;;83.75;26.83;;;;;;;;;;5071505;28;20029;-66
2024/03/22 04:37:34;;;;;;;83.47;29.98;;;;;;;;;;5070173;28;20036;-66
2024/03/22 04:40:19;;;;;;;79.80;27.05;;;;;;;;;;5071583;28;20051;-66
2024/03/22 04:43:05;;;;;;;86.78;27.75;;;;;;;;;;5071253;28;20490;-67
2024/03/22 04:45:51;;;;;;;84.35;27.50;;;;;;;;;;5074439;28;20543;-66
2024/03/22 04:48:36;;;;;;;77.68;26.77;;;;;;;;;;5060291;28;20021;-66
2024/03/22 04:51:22;;;;;;;91.47;29.20;;;;;;;;;;5074392;28;20012;-66
2024/03/22 04:54:08;;;;;;;89.32;28.20;;;;;;;;;;5076545;28;20077;-66
2024/03/22 04:56:53;;;;;;;93.40;30.35;;;;;;;;;;5078638;28;20044;-66
2024/03/22 04:59:39;;;;;;;93.60;29.20;;;;;;;;;;5077305;28;20021;-66
2024/03/22 05:02:24;;;;;;;90.93;26.58;;;;;;;;;;5083150;28;20063;-66
2024/03/22 05:05:11;;;;;;;78.00;25.80;;;;;;;;;;5094493;28;20020;-66
2024/03/22 05:07:57;;;;;;;85.93;27.33;;;;;;;;;;5094533;28;20059;-66
2024/03/22 05:10:42;;;;;;;86.43;27.70;;;;;;;;;;5094090;28;20020;-66
2024/03/22 05:13:28;;;;;;;81.63;26.95;;;;;;;;;;5093848;28;20022;-66
2024/03/22 05:16:14;;;;;;;99.35;26.30;;;;;;;;;;5094246;28;20020;-66
2024/03/22 05:18:59;;;;;;;98.40;27.00;;;;;;;;;;5094885;28;20035;-66
2024/03/22 05:21:45;;;;;;;74.97;24.65;;;;;;;;;;5093912;28;20024;-66
2024/03/22 05:24:31;;;;;;;79.05;25.10;;;;;;;;;;5093897;28;20055;-66
2024/03/22 05:27:19;;;;;;;89.82;25.98;;;;;;;;;;5094350;28;20572;-66
2024/03/22 05:30:05;;;;;;;86.30;28.10;;;;;;;;;;5094590;28;20035;-66
2024/03/22 05:32:51;;;;;;;85.22;25.02;;;;;;;;;;5094663;28;20543;-66
2024/03/22 05:35:37;;;;;;;79.88;24.70;;;;;;;;;;5094369;28;20020;-66
2024/03/22 05:38:23;;;;;;;75.57;23.48;;;;;;;;;;5093302;28;20039;-66
2024/03/22 05:41:09;;;;;;;89.25;24.50;;;;;;;;;;5094078;28;20069;-66
2024/03/22 05:43:55;;;;;;;67.85;21.92;;;;;;;;;;5094323;28;20106;-66
2024/03/22 05:46:40;;;;;;;83.70;23.83;;;;;;;;;;5094110;28;20503;-66
2024/03/22 05:49:26;;;;;;;88.50;23.55;;;;;;;;;;5093587;28;20505;-66
2024/03/22 05:52:12;;;;;;;85.18;23.02;;;;;;;;;;5093646;28;20020;-66
2024/03/22 05:54:57;;;;;;;87.38;21.48;;;;;;;;;;5094678;28;20030;-66
2024/03/22 05:57:43;;;;;;;72.13;23.67;;;;;;;;;;5093701;28;20497;-66
2024/03/22 06:00:30;;;;;;;73.88;21.52;;;;;;;;;;5094167;28;20032;-66
2024/03/22 06:03:16;;;;;;;70.60;22.48;;;;;;;;;;5093081;28;20061;-66
2024/03/22 06:06:01;;;;;;;75.18;20.38;;;;;;;;;;5093405;28;20112;-66
2024/03/22 06:08:52;;;;;;;63.70;21.77;;;;;;;;;;5079488;28;20099;-66
2024/03/22 06:11:38;;;;;;;72.72;21.38;;;;;;;;;;5094253;28;20027;-66
2024/03/22 06:14:23;;;;;;;50.15;19.00;;;;;;;;;;5094219;28;20050;-66
2024/03/22 06:17:10;;;;;;;59.33;18.48;;;;;;;;;;5092679;28;20028;-66
2024/03/22 06:19:55;;;;;;;53.35;17.10;;;;;;;;;;5078569;28;20024;-66
2024/03/22 06:22:41;;;;;;;61.33;17.55;;;;;;;;;;5093124;28;20020;-66
2024/03/22 06:25:26;;;;;;;55.95;17.10;;;;;;;;;;5093456;28;20062;-67
2024/03/22 06:28:12;;;;;;;56.70;17.15;;;;;;;;;;5092424;28;20508;-66
2024/03/22 06:30:58;;;;;;;58.55;15.82;;;;;;;;;;5093376;28;20401;-66
2024/03/22 06:33:43;;;;;;;57.33;16.88;;;;;;;;;;5093289;28;20103;-66
2024/03/22 06:36:32;;;;;;;55.28;15.85;;;;;;;;;;5093279;28;20031;-66
2024/03/22 06:39:17;;;;;;;51.38;15.52;;;;;;;;;;5091890;28;20028;-67
2024/03/22 06:42:03;;;;;;;51.10;14.82;;;;;;;;;;5092420;28;20027;-66
2024/03/22 06:44:49;;;;;;;40.50;14.13;;;;;;;;;;5094230;28;20028;-66
2024/03/22 06:47:34;;;;;;;54.50;14.68;;;;;;;;;;5092787;28;20107;-66
2024/03/22 06:50:24;;;;;;;48.05;14.45;;;;;;;;;;5093502;28;20023;-66
2024/03/22 06:53:12;;;;;;;45.58;15.65;;;;;;;;;;5063230;28;20028;-66
2024/03/22 06:55:58;;;;;;;55.80;13.55;;;;;;;;;;5093442;28;20481;-66
2024/03/22 06:58:44;;;;;;;38.83;13.00;;;;;;;;;;5092625;28;20057;-66
2024/03/22 07:01:29;;;;;;;39.58;12.77;;;;;;;;;;5092059;28;20056;-65
2024/03/22 07:04:15;;;;;;;38.67;13.52;;;;;;;;;;5092913;28;20077;-66
2024/03/22 07:07:01;;;;;;;36.42;12.18;;;;;;;;;;5092774;28;20484;-66
2024/03/22 07:09:47;;;;;;;40.17;11.43;;;;;;;;;;5078353;28;20024;-66
2024/03/22 07:12:33;;;;;;;37.45;10.35;;;;;;;;;;5092412;28;20020;-66
2024/03/22 07:15:19;;;;;;;39.47;10.82;;;;;;;;;;5092504;28;20028;-66
2024/03/22 07:18:04;;;;;;;30.98;10.73;;;;;;;;;;5092415;28;20482;-66
2024/03/22 07:20:50;;;;;;;29.13;10.48;;;;;;;;;;5093716;28;20025;-66
2024/03/22 07:23:36;;;;;;;28.45;9.57;;;;;;;;;;5092676;28;20016;-66
2024/03/22 07:26:22;;;;;;;32.28;10.50;;;;;;;;;;5092321;28;20485;-66
2024/03/22 07:29:07;;;;;;;30.63;10.10;;;;;;;;;;5093236;28;20039;-66
2024/03/22 07:31:53;;;;;;;31.40;10.60;;;;;;;;;;5092849;28;20031;-66
2024/03/22 07:34:39;;;;;;;27.95;9.40;;;;;;;;;;5092783;28;20111;-66
2024/03/22 07:37:24;;;;;;;35.97;11.20;;;;;;;;;;5077329;28;20020;-66
2024/03/22 07:40:11;;;;;;;24.98;9.93;;;;;;;;;;5092409;28;20413;-66
2024/03/22 07:42:59;;;;;;;32.53;10.30;;;;;;;;;;5091804;28;20016;-66
2024/03/22 07:45:44;;;;;;;23.75;8.65;;;;;;;;;;5092825;28;20054;-66
2024/03/22 07:48:30;;;;;;;24.77;10.48;;;;;;;;;;5092001;28;20110;-66
2024/03/22 07:51:16;;;;;;;30.90;9.25;;;;;;;;;;5092271;28;20523;-66
2024/03/22 07:54:02;;;;;;;31.33;8.45;;;;;;;;;;5092440;28;20028;-66
2024/03/22 07:56:48;;;;;;;33.65;11.35;;;;;;;;;;5092613;28;20370;-66
2024/03/22 07:59:34;;;;;;;27.55;9.73;;;;;;;;;;5092979;28;20024;-66
2024/03/22 08:02:20;;;;;;;30.13;10.13;;;;;;;;;;5077717;28;20031;-67
2024/03/22 08:05:06;;;;;;;28.30;10.10;;;;;;;;;;5092455;28;20508;-67
2024/03/22 08:07:52;;;;;;;23.17;9.10;;;;;;;;;;5093300;28;20081;-67
2024/03/22 08:10:37;;;;;;;28.63;8.60;;;;;;;;;;5079401;28;20073;-67
2024/03/22 08:13:23;;;;;;;28.17;9.18;;;;;;;;;;5082310;28;20021;-66
2024/03/22 08:16:08;;;;;;;24.83;8.63;;;;;;;;;;5092349;28;20074;-66
2024/03/22 08:18:54;;;;;;;26.05;8.20;;;;;;;;;;5092498;28;20020;-67
2024/03/22 08:21:40;;;;;;;22.30;8.27;;;;;;;;;;5095086;28;20512;-67
2024/03/22 08:24:26;;;;;;;22.05;8.27;;;;;;;;;;5095171;28;20078;-67
2024/03/22 08:27:11;;;;;;;19.88;8.38;;;;;;;;;;5078949;28;20107;-67
2024/03/22 08:29:57;;;;;;;25.08;9.00;;;;;;;;;;5078425;28;20021;-67
2024/03/22 08:32:43;;;;;;;19.30;7.93;;;;;;;;;;5078073;28;20017;-67
2024/03/22 08:35:28;;;;;;;26.02;8.90;;;;;;;;;;5076924;28;20029;-66
2024/03/22 08:38:14;;;;;;;23.60;8.68;;;;;;;;;;5075392;28;20107;-66
2024/03/22 08:41:00;;;;;;;32.22;9.57;;;;;;;;;;5080413;28;20454;-66
2024/03/22 08:43:46;;;;;;;28.52;9.23;;;;;;;;;;5094596;28;20074;-66
2024/03/22 08:46:32;;;;;;;23.33;9.57;;;;;;;;;;5094074;28;20020;-66
2024/03/22 08:49:19;;;;;;;30.58;9.55;;;;;;;;;;5091320;28;20461;-66
2024/03/22 08:52:04;;;;;;;31.65;9.43;;;;;;;;;;5084712;28;20020;-66
2024/03/22 08:54:51;;;;;;;28.98;11.25;;;;;;;;;;5093843;28;20438;-65
2024/03/22 08:57:36;;;;;;;26.05;9.73;;;;;;;;;;5078461;28;20024;-66
2024/03/22 09:00:22;;;;;;;30.42;10.18;;;;;;;;;;5073894;28;20024;-66
2024/03/22 09:03:08;;;;;;;29.10;10.90;;;;;;;;;;5079504;28;20020;-66
2024/03/22 09:05:53;;;;;;;32.20;13.27;;;;;;;;;;5094606;28;20477;-66
2024/03/22 09:08:39;;;;;;;23.38;9.90;;;;;;;;;;5080075;28;20020;-66
2024/03/22 09:11:25;;;;;;;24.40;8.98;;;;;;;;;;5094033;28;20027;-66
2024/03/22 09:14:11;;;;;;;29.50;9.73;;;;;;;;;;5079155;28;20052;-66
2024/03/22 09:16:57;;;;;;;31.27;8.95;;;;;;;;;;5094013;28;20028;-66
2024/03/22 09:19:42;;;;;;;21.88;8.60;;;;;;;;;;5082638;28;20439;-66
2024/03/22 09:22:28;;;;;;;22.23;9.13;;;;;;;;;;5094037;28;20469;-66
2024/03/22 09:25:14;;;;;;;22.30;8.15;;;;;;;;;;5074173;28;20025;-66
2024/03/22 09:27:59;;;;;;;26.23;9.13;;;;;;;;;;5075389;28;20024;-66
2024/03/22 09:30:45;;;;;;;19.40;7.60;;;;;;;;;;5073451;28;20012;-65
2024/03/22 09:33:32;;;;;;;22.98;7.88;;;;;;;;;;5077192;28;20505;-66
2024/03/22 09:36:18;;;;;;;21.92;8.63;;;;;;;;;;5071817;28;20131;-66
2024/03/22 09:39:03;;;;;;;25.20;8.48;;;;;;;;;;5073997;28;20375;-66
2024/03/22 09:41:50;;;;;;;22.92;7.20;;;;;;;;;;5088986;28;20032;-66
2024/03/22 09:44:37;;;;;;;27.10;8.75;;;;;;;;;;5091380;28;20035;-66
2024/03/22 09:47:24;;;;;;;22.00;7.25;;;;;;;;;;5073495;28;20035;-66
2024/03/22 09:50:09;;;;;;;15.20;7.60;;;;;;;;;;5093983;28;20024;-66
2024/03/22 09:52:56;;;;;;;16.42;7.28;;;;;;;;;;5071647;28;20062;-66
2024/03/22 09:55:43;;;;;;;16.90;5.82;;;;;;;;;;5093402;28;20032;-66
2024/03/22 09:58:29;;;;;;;15.85;7.65;;;;;;;;;;5076873;28;20394;-66
2024/03/22 10:01:15;;;;;;;14.77;6.65;;;;;;;;;;5079236;28;20542;-66
2024/03/22 10:04:01;;;;;;;12.35;6.35;;;;;;;;;;5064266;28;20067;-67
2024/03/22 10:06:47;;;;;;;12.38;6.00;;;;;;;;;;5079912;28;20025;-66
2024/03/22 10:09:33;;;;;;;13.65;5.90;;;;;;;;;;5075913;28;20108;-66
2024/03/22 10:12:20;;;;;;;10.77;5.90;;;;;;;;;;5083108;28;20027;-66
2024/03/22 10:15:08;;;;;;;36.72;21.55;;;;;;;;;;5092986;28;20442;-66
2024/03/22 10:17:56;;;;;;;27.70;12.15;;;;;;;;;;5093305;28;20023;-66
2024/03/22 10:20:41;;;;;;;24.05;13.48;;;;;;;;;;5081518;28;20028;-66
2024/03/22 10:23:28;;;;;;;127.50;47.25;;;;;;;;;;5093017;28;20027;-66
2024/03/22 10:26:14;;;;;;;90.00;30.73;;;;;;;;;;5078629;28;20028;-66
2024/03/22 10:29:00;;;;;;;44.38;18.15;;;;;;;;;;5078471;28;20048;-66
2024/03/22 10:31:45;;;;;;;37.40;12.80;;;;;;;;;;5077825;28;20081;-66
2024/03/22 10:34:31;;;;;;;36.17;13.43;;;;;;;;;;5092800;28;20481;-66
2024/03/22 10:37:17;;;;;;;26.30;16.50;;;;;;;;;;5077622;28;20107;-66
2024/03/22 10:40:09;;;;;;;29.95;13.45;;;;;;;;;;5077130;28;20035;-66
2024/03/22 10:42:55;;;;;;;30.27;11.77;;;;;;;;;;5090952;28;20107;-66
2024/03/22 10:45:41;;;;;;;88.60;35.70;;;;;;;;;;5093422;28;20082;-66
2024/03/22 10:48:31;;;;;;;26.25;12.10;;;;;;;;;;5091822;28;20166;-66
2024/03/22 10:51:17;;;;;;;25.45;13.60;;;;;;;;;;5077623;28;20097;-66
2024/03/22 10:54:03;;;;;;;32.10;14.65;;;;;;;;;;5076577;28;20043;-66
2024/03/22 10:56:49;;;;;;;33.38;11.35;;;;;;;;;;5077883;28;20439;-66
2024/03/22 10:59:35;;;;;;;31.83;11.48;;;;;;;;;;5076822;28;20158;-66
2024/03/22 11:02:23;;;;;;;33.53;15.35;;;;;;;;;;5087466;28;20404;-66
2024/03/22 11:05:16;;;;;;;23.67;8.93;;;;;;;;;;5077610;28;20050;-66
2024/03/22 11:08:05;;;;;;;57.70;26.08;;;;;;;;;;5065301;28;20546;-66
2024/03/22 11:10:51;;;;;;;19.25;7.00;;;;;;;;;;5063711;28;20082;-66
2024/03/22 11:13:39;;;;;;;28.17;8.35;;;;;;;;;;5072516;28;20162;-66
2024/03/22 11:16:24;;;;;;;16.60;5.75;;;;;;;;;;5063311;28;20028;-66
2024/03/22 11:19:10;;;;;;;20.40;6.20;;;;;;;;;;5076621;28;20425;-66
2024/03/22 11:21:56;;;;;;;19.88;5.40;;;;;;;;;;5071201;28;20035;-66
2024/03/22 11:24:41;;;;;;;18.73;6.43;;;;;;;;;;5062463;28;20027;-66
2024/03/22 11:27:27;;;;;;;15.07;6.80;;;;;;;;;;5079470;28;20020;-66
2024/03/22 11:30:13;;;;;;;19.83;6.28;;;;;;;;;;5072049;28;20149;-66
2024/03/22 11:33:02;;;;;;;27.17;7.85;;;;;;;;;;5072948;28;20020;-65
2024/03/22 11:35:49;;;;;;;21.52;8.05;;;;;;;;;;5057646;28;20170;-66
2024/03/22 11:38:35;;;;;;;27.40;7.30;;;;;;;;;;5098397;22;20071;-66
2024/03/22 11:41:27;;;;;;;21.90;6.10;;;;;;;;;;5091220;28;20457;-67
2024/03/22 11:44:12;;;;;;;17.27;5.57;;;;;;;;;;5079964;28;20031;-67
2024/03/22 11:46:58;;;;;;;13.07;5.60;;;;;;;;;;5076445;28;20101;-68
2024/03/22 11:49:44;;;;;;;17.67;5.53;;;;;;;;;;5068296;28;20039;-67
2024/03/22 11:52:29;;;;;;;21.30;6.22;;;;;;;;;;5091458;28;20024;-67
2024/03/22 11:55:15;;;;;;;34.33;8.23;;;;;;;;;;5086809;28;20056;-69
2024/03/22 11:58:01;;;;;;;27.73;7.97;;;;;;;;;;5074692;28;20421;-68
2024/03/22 12:00:46;;;;;;;19.40;5.65;;;;;;;;;;5080356;28;20047;-67
2024/03/22 12:03:32;;;;;;;23.63;6.70;;;;;;;;;;5094977;28;20123;-67
2024/03/22 12:06:18;;;;;;;14.75;4.68;;;;;;;;;;5080103;28;20114;-68
2024/03/22 12:09:03;;;;;;;22.30;7.45;;;;;;;;;;5075063;28;20436;-67
2024/03/22 12:11:49;;;;;;;25.15;5.68;;;;;;;;;;5078368;28;20070;-68
2024/03/22 12:14:35;;;;;;;18.52;6.20;;;;;;;;;;5074074;28;20029;-68
2024/03/22 12:17:21;;;;;;;23.80;6.20;;;;;;;;;;5074947;28;20490;-67
2024/03/22 12:20:08;;;;;;;16.63;4.93;;;;;;;;;;5075388;28;20028;-66
2024/03/22 12:22:54;;;;;;;27.88;6.97;;;;;;;;;;5070907;28;20447;-67
2024/03/22 12:25:40;;;;;;;23.70;6.72;;;;;;;;;;5084459;28;20036;-67
2024/03/22 12:28:26;;;;;;;28.65;7.85;;;;;;;;;;5087219;28;20385;-68
2024/03/22 12:31:11;;;;;;;20.55;5.85;;;;;;;;;;5094931;28;20020;-68
2024/03/22 12:33:57;;;;;;;18.05;6.57;;;;;;;;;;5074875;28;20025;-67
2024/03/22 12:36:43;;;;;;;31.15;6.47;;;;;;;;;;5074317;28;20027;-67
2024/03/22 12:39:29;;;;;;;26.10;7.47;;;;;;;;;;5087765;28;20060;-68
2024/03/22 12:42:14;;;;;;;24.30;6.93;;;;;;;;;;5094362;28;20081;-67
2024/03/22 12:45:00;;;;;;;19.48;6.35;;;;;;;;;;5093559;28;20392;-67
2024/03/22 12:47:45;;;;;;;26.95;6.35;;;;;;;;;;5094400;28;20024;-67
2024/03/22 12:50:31;;;;;;;31.25;6.80;;;;;;;;;;5094860;28;20027;-67
2024/03/22 12:53:17;;;;;;;21.25;6.60;;;;;;;;;;5060635;28;20398;-67
2024/03/22 12:56:04;;;;;;;35.00;6.00;;;;;;;;;;5073159;28;20033;-67
2024/03/22 12:58:49;;;;;;;31.63;7.82;;;;;;;;;;5078462;28;20089;-68
2024/03/22 13:01:36;;;;;;;26.50;6.15;;;;;;;;;;5093485;28;20050;-67
2024/03/22 13:04:23;;;;;;;26.60;6.07;;;;;;;;;;5080769;28;20037;-68
2024/03/22 13:07:08;;;;;;;52.15;16.67;;;;;;;;;;5073847;28;20024;-67
2024/03/22 13:09:55;;;;;;;49.20;14.13;;;;;;;;;;5082867;28;20035;-67
2024/03/22 13:12:40;;;;;;;41.03;13.60;;;;;;;;;;5073098;28;20566;-67
2024/03/22 13:15:26;;;;;;;35.35;11.27;;;;;;;;;;5077480;28;20040;-67
2024/03/22 13:18:11;;;;;;;42.92;10.05;;;;;;;;;;5073318;28;20028;-68
2024/03/22 13:20:57;;;;;;;65.13;15.85;;;;;;;;;;5072627;28;20025;-68
2024/03/22 13:23:43;;;;;;;36.97;9.82;;;;;;;;;;5076060;28;20493;-67
2024/03/22 13:26:28;;;;;;;99.28;24.23;;;;;;;;;;5074440;28;20473;-67
2024/03/22 13:29:14;;;;;;;49.15;14.18;;;;;;;;;;5083208;28;20021;-66
2024/03/22 13:32:00;;;;;;;114.20;26.35;;;;;;;;;;5082745;28;20024;-68
2024/03/22 13:34:46;;;;;;;44.60;13.82;;;;;;;;;;5091199;28;20094;-67
2024/03/22 13:37:31;;;;;;;27.80;6.25;;;;;;;;;;5072635;28;20021;-67
2024/03/22 13:40:17;;;;;;;21.77;5.97;;;;;;;;;;5075025;28;20028;-67
2024/03/22 13:43:03;;;;;;;36.22;9.52;;;;;;;;;;5072861;28;20023;-68
2024/03/22 13:45:53;;;;;;;30.85;8.77;;;;;;;;;;5072639;28;20400;-67
2024/03/22 13:48:39;;;;;;;19.83;6.90;;;;;;;;;;5073505;28;20490;-68
2024/03/22 13:51:27;;;;;;;21.88;5.50;;;;;;;;;;5073003;28;20029;-67
2024/03/22 13:54:13;;;;;;;24.67;5.93;;;;;;;;;;5081215;28;20025;-68
2024/03/22 13:57:00;;;;;;;26.83;6.68;;;;;;;;;;5071740;28;20052;-67
2024/03/22 13:59:46;;;;;;;24.27;5.53;;;;;;;;;;5081124;28;20020;-67
2024/03/22 14:02:33;;;;;;;23.48;6.10;;;;;;;;;;5093414;28;20519;-67
2024/03/22 14:05:18;;;;;;;27.52;5.70;;;;;;;;;;5079836;28;20042;-67
2024/03/22 14:08:04;;;;;;;24.05;6.00;;;;;;;;;;5077936;28;20547;-68
2024/03/22 14:10:50;;;;;;;25.15;4.90;;;;;;;;;;5081005;28;20555;-68
2024/03/22 14:13:36;;;;;;;26.13;6.20;;;;;;;;;;5074952;28;20167;-68
2024/03/22 14:16:21;;;;;;;29.38;7.07;;;;;;;;;;5076969;28;20032;-67
2024/03/22 14:19:08;;;;;;;16.83;6.38;;;;;;;;;;5081663;28;20370;-66
2024/03/22 14:21:54;;;;;;;22.55;4.55;;;;;;;;;;5077184;28;20024;-65
2024/03/22 14:24:39;;;;;;;33.35;6.75;;;;;;;;;;5076340;28;20055;-66
2024/03/22 14:27:25;;;;;;;23.00;5.75;;;;;;;;;;5082962;28;20081;-66
2024/03/22 14:30:12;;;;;;;23.23;5.47;;;;;;;;;;5083773;28;20115;-66
2024/03/22 14:32:58;;;;;;;19.50;4.28;;;;;;;;;;5083914;28;20552;-67
2024/03/22 14:35:44;;;;;;;29.88;4.60;;;;;;;;;;5080979;28;20118;-67
2024/03/22 14:38:30;;;;;;;19.85;4.28;;;;;;;;;;5087912;28;20032;-67
2024/03/22 14:41:15;;;;;;;24.42;4.15;;;;;;;;;;5092507;28;20020;-67
2024/03/22 14:44:01;;;;;;;13.65;3.80;;;;;;;;;;5077645;28;20035;-67
2024/03/22 14:46:47;;;;;;;17.33;5.32;;;;;;;;;;5092059;28;20042;-67
2024/03/22 14:49:32;;;;;;;28.75;3.92;;;;;;;;;;5091965;28;20552;-67
2024/03/22 14:52:18;;;;;;;16.77;3.83;;;;;;;;;;5092557;28;20022;-68
2024/03/22 14:55:04;;;;;;;22.52;4.85;;;;;;;;;;5092108;28;20109;-68
2024/03/22 14:57:49;;;;;;;25.55;5.03;;;;;;;;;;5091274;28;20425;-67
2024/03/22 15:00:35;;;;;;;20.65;4.25;;;;;;;;;;5092287;28;20020;-67
2024/03/22 15:03:22;;;;;;;22.98;4.80;;;;;;;;;;5091858;28;20049;-67
2024/03/22 15:06:07;;;;;;;21.02;4.78;;;;;;;;;;5077038;28;20028;-67
2024/03/22 15:08:53;;;;;;;22.10;4.65;;;;;;;;;;5091599;28;20031;-67
2024/03/22 15:11:39;;;;;;;18.88;4.03;;;;;;;;;;5092006;28;20020;-67
2024/03/22 15:14:30;;;;;;;23.05;4.93;;;;;;;;;;5090885;28;20393;-67
2024/03/22 15:17:22;;;;;;;27.48;4.82;;;;;;;;;;5091473;28;20024;-67
2024/03/22 15:20:08;;;;;;;31.00;3.83;;;;;;;;;;5084517;28;20024;-67
2024/03/22 15:22:57;;;;;;;26.80;4.63;;;;;;;;;;5074132;28;20028;-67
2024/03/22 15:25:43;;;;;;;22.52;4.50;;;;;;;;;;5079968;28;20081;-68
2024/03/22 15:28:28;;;;;;;27.65;5.03;;;;;;;;;;5089893;28;20028;-67
2024/03/22 15:31:14;;;;;;;21.13;3.72;;;;;;;;;;5082739;28;20035;-67
2024/03/22 15:34:00;;;;;;;25.15;3.75;;;;;;;;;;5072812;28;20021;-67
2024/03/22 15:36:45;;;;;;;33.03;4.38;;;;;;;;;;5077014;28;20029;-67
2024/03/22 15:39:31;;;;;;;21.83;4.18;;;;;;;;;;5079695;28;20028;-67
2024/03/22 15:42:17;;;;;;;31.88;5.20;;;;;;;;;;5090715;28;20039;-67
2024/03/22 15:45:05;;;;;;;21.02;3.67;;;;;;;;;;5090791;28;20192;-67
2024/03/22 15:47:50;;;;;;;25.52;4.88;;;;;;;;;;5077311;28;20024;-67
2024/03/22 15:50:36;;;;;;;31.50;5.47;;;;;;;;;;5091394;28;20073;-67
2024/03/22 15:53:22;;;;;;;24.45;3.90;;;;;;;;;;5091907;28;20055;-67
2024/03/22 15:56:08;;;;;;;18.02;4.72;;;;;;;;;;5091839;28;20394;-68
2024/03/22 15:58:53;;;;;;;27.90;5.82;;;;;;;;;;5091678;28;20024;-67
2024/03/22 16:01:39;;;;;;;27.52;4.75;;;;;;;;;;5091002;28;20016;-66
2024/03/22 16:04:25;;;;;;;30.27;5.55;;;;;;;;;;5080908;28;20359;-67
2024/03/22 16:07:11;;;;;;;30.50;4.15;;;;;;;;;;5090661;28;20075;-67
2024/03/22 16:09:56;;;;;;;23.83;4.97;;;;;;;;;;5091005;28;20024;-67